Decoded Metar for KART (WATERTOWN in NY, USA) (IATA:ART) | Meteo·Mobile Aviation Weather
aviador You're here:

KART Decoded Metar

WATERTOWN in NY, USA
Report Time2019-01-20 11:27:00
UTC Time2019-01-20 11:37:33
Flight Rules ifr IFR
Wind050° at 16 kt
W.Decomp.*RWY 07: 15.8 kt HW 2.2 kt LCW
RWY 10: 12.6 kt HW 9.9 kt LCW
W.Rank050° ranks 13
Current wind is above 050° avg. (7.3)
Visibility1609 m
Phenomena:Light Snow
Mist
Clouds:N/A
Expected CloudBase > 800 ft AGL from Temp-Dew spread
CeilingNone
Temp-20°C (ISA -34)
Dew Point-22°C (84% RH)
AAT-29.4°C
QNH1006 hPa
Density Alt-3,809 ft
Elevation328 ft
Report Wrong Elevation
Raw Report
KART 201127Z AUTO 05016KT 1SM -SN BR M20/M22 A2970 RMK AO2 P0000
T12001222 $=

Extra information for KART:More info

Metar Taf Metar & Taf Last 4 Metars F.Rules Stats Wind Profile Meteogram Temp Stats Airport Information Weather charts Add Link Nearby VenuesMetar ALERT Operation Metar Decoded Social comments

AIRNAV info for KART